Time;durP1;ratioP1;P1;durP2;ratioP2;P2;SDS_P1;SDS_P2;PMS_P1;PMS_P2;Temp;Humidity;BMP_temperature;BMP_pressure;BME280_temperature;BME280_humidity;BME280_pressure;Samples;Min_cycle;Max_cycle;Signal;HPM_P1;HPM_P2
2022/01/22 00:01:08;;;;;;;2.63;0.80;;;-1.30;99.90;-2.50;100203;;;;571896;246;24067;-82
2022/01/22 00:03:39;;;;;;;0.77;0.77;;;-1.30;99.90;-2.60;100197;;;;584232;245;24048;-82
2022/01/22 00:06:03;;;;;;;3.17;1.00;;;-1.30;99.90;-2.50;100202;;;;574972;245;24080;-81
2022/01/22 00:08:31;;;;;;;2.37;0.67;;;-1.30;99.90;-2.40;100205;;;;583688;243;26343;-82
2022/01/22 00:10:59;;;;;;;4.17;1.50;;;-1.20;99.90;-2.30;100201;;;;576142;244;24070;-82
2022/01/22 00:16:17;;;;;;;1.43;1.30;;;-1.00;99.90;-2.10;100204;;;;582764;243;24137;-81
2022/01/22 00:18:42;;;;;;;2.90;0.50;;;-0.90;99.90;-2.10;100205;;;;571965;247;24050;-81
2022/01/22 00:21:11;;;;;;;0.53;0.53;;;-0.90;99.90;-2.10;100205;;;;583823;244;24085;-79
2022/01/22 00:23:45;;;;;;;1.47;0.50;;;-0.90;99.90;-2.10;100197;;;;583543;243;24114;-79
2022/01/22 00:26:08;;;;;;;3.63;0.50;;;-0.90;99.90;-2.20;100196;;;;572060;247;24078;-79
2022/01/22 00:28:36;;;;;;;1.07;0.73;;;-0.90;99.90;-2.20;100210;;;;574806;246;24041;-80
2022/01/22 00:31:04;;;;;;;2.93;0.97;;;-1.00;99.90;-2.20;100211;;;;584842;244;24066;-79
2022/01/22 00:33:35;;;;;;;1.33;0.67;;;-1.00;99.90;-2.20;100214;;;;584957;241;24050;-79
2022/01/22 00:35:59;;;;;;;1.97;1.17;;;-1.00;99.90;-2.20;100216;;;;575365;246;24095;-77
2022/01/22 00:38:27;;;;;;;0.47;0.47;;;-1.00;99.90;-2.20;100219;;;;584500;242;24096;-80
2022/01/22 00:40:55;;;;;;;1.40;0.40;;;-1.00;99.90;-2.20;100224;;;;584554;245;24060;-79
2022/01/22 00:43:25;;;;;;;1.37;1.27;;;-1.10;99.90;-2.30;100211;;;;581999;244;24061;-80
2022/01/22 00:45:52;;;;;;;2.00;1.53;;;-1.10;99.90;-2.30;100222;;;;584338;244;24064;-78
2022/01/22 00:48:20;;;;;;;0.73;0.73;;;-1.10;99.90;-2.20;100227;;;;584045;244;24079;-79
2022/01/22 00:50:51;;;;;;;2.83;0.93;;;-1.10;99.90;-2.20;100233;;;;583865;239;24135;-79
2022/01/22 00:53:16;;;;;;;1.43;0.80;;;-1.10;99.90;-2.30;100240;;;;583781;246;24078;-79
2022/01/22 00:55:43;;;;;;;1.30;0.97;;;-1.10;99.90;-2.30;100229;;;;583986;242;24101;-79
2022/01/22 00:58:12;;;;;;;1.03;0.50;;;-1.10;99.90;-2.40;100226;;;;583791;246;24118;-78
2022/01/22 01:00:39;;;;;;;1.37;1.17;;;-1.20;99.90;-2.40;100236;;;;583773;241;24115;-79
2022/01/22 01:03:11;;;;;;;0.57;0.57;;;-1.30;99.90;-2.50;100245;;;;584003;244;24063;-80
2022/01/22 01:05:37;;;;;;;2.93;0.93;;;-1.30;99.90;-2.50;100242;;;;572156;246;24061;-80
2022/01/22 01:08:08;;;;;;;1.17;0.60;;;-1.30;99.90;-2.50;100252;;;;574773;247;24045;-79
2022/01/22 01:10:33;;;;;;;0.53;0.53;;;-1.30;99.90;-2.60;100250;;;;572221;246;24143;-79
2022/01/22 01:13:01;;;;;;;4.03;1.03;;;-1.30;99.90;-2.50;100253;;;;575082;244;24132;-78
2022/01/22 01:15:55;;;;;;;2.67;1.00;;;-1.30;99.90;-2.50;100252;;;;583618;244;24040;-77
2022/01/22 01:32:10;;;;;;;0.40;0.27;;;-1.30;99.90;-2.40;100257;;;;583448;245;24064;-77
2022/01/22 01:34:30;;;;;;;1.00;0.90;;;-1.10;99.90;-2.20;100251;;;;583382;242;24137;-79
2022/01/22 01:36:54;;;;;;;0.40;0.40;;;-1.10;99.90;-2.20;100250;;;;591688;242;24084;-78
2022/01/22 01:39:30;;;;;;;0.67;0.50;;;-1.00;99.90;-2.20;100256;;;;582852;242;24176;-78
2022/01/22 01:42:01;;;;;;;0.40;0.40;;;-1.00;99.90;-2.20;100250;;;;584060;241;25116;-78
2022/01/22 01:44:24;;;;;;;0.30;0.30;;;-1.00;99.90;-2.10;100248;;;;566315;250;24155;-77
2022/01/22 01:46:49;;;;;;;0.73;0.70;;;-0.90;99.90;-2.10;100242;;;;565739;250;24112;-80
2022/01/22 01:49:17;;;;;;;0.37;0.37;;;-0.90;99.90;-2.00;100254;;;;578336;247;25155;-77
2022/01/22 01:51:45;;;;;;;1.10;0.57;;;-0.80;99.90;-2.00;100263;;;;579129;245;24036;-78
2022/01/22 01:59:42;;;;;;;1.23;1.13;;;-0.80;99.90;-2.00;100245;;;;582238;245;24129;-80
2022/01/22 02:02:10;;;;;;;0.50;0.50;;;-0.80;99.90;-1.90;100268;;;;561639;252;24131;-78
2022/01/22 02:04:41;;;;;;;0.37;0.33;;;-0.70;99.90;-1.90;100252;;;;561518;252;24119;-78
2022/01/22 02:07:06;;;;;;;1.13;0.87;;;-0.70;99.90;-1.80;100257;;;;570340;248;24127;-78
2022/01/22 02:09:36;;;;;;;8.03;0.60;;;-0.60;99.90;-1.70;100262;;;;571713;248;24091;-78
2022/01/22 02:12:11;;;;;;;1.33;1.33;;;-0.50;99.90;-1.60;100267;;;;573122;246;24111;-78
2022/01/22 02:25:28;;;;;;;3.50;1.50;;;-0.20;99.90;-1.40;100280;;;;575563;247;35133;-81
2022/01/22 02:27:56;;;;;;;1.20;1.10;;;-0.10;99.90;-1.30;100286;;;;571390;247;24068;-79
2022/01/22 02:30:29;;;;;;;0.40;0.40;;;-0.10;99.90;-1.20;100282;;;;573300;246;24100;-80
2022/01/22 02:33:11;;;;;;;3.40;0.53;;;-0.10;99.90;-1.30;100278;;;;573444;247;24128;-79
2022/01/22 02:35:36;;;;;;;0.30;0.30;;;0.00;99.90;-1.20;100289;;;;573220;247;24120;-79
2022/01/22 02:38:03;;;;;;;5.28;1.37;;;0.00;99.90;-1.20;100287;;;;576659;242;35106;-81
2022/01/22 02:40:32;;;;;;;1.47;1.03;;;0.00;99.90;-1.20;100290;;;;581493;243;24091;-77
2022/01/22 02:42:54;;;;;;;1.50;0.63;;;0.00;99.90;-1.20;100292;;;;581852;246;25144;-75
2022/01/22 02:45:23;;;;;;;1.97;1.43;;;0.00;99.90;-1.10;100296;;;;578483;247;24154;-79
2022/01/22 02:47:53;;;;;;;2.20;0.47;;;0.00;99.90;-1.10;100290;;;;573167;247;24153;-81
2022/01/22 02:50:18;;;;;;;0.73;0.47;;;0.10;99.90;-1.10;100288;;;;581203;246;24119;-78
2022/01/22 02:52:49;;;;;;;0.40;0.40;;;0.10;99.90;-1.10;100291;;;;579113;244;24143;-78
2022/01/22 02:55:14;;;;;;;2.20;1.20;;;0.10;99.90;-1.20;100294;;;;574398;246;24080;-79
2022/01/22 02:57:43;;;;;;;1.03;0.57;;;0.10;99.90;-1.20;100296;;;;574351;246;24128;-82
2022/01/22 03:00:11;;;;;;;0.93;0.67;;;0.00;99.90;-1.20;100295;;;;583162;242;24081;-79
2022/01/22 03:02:38;;;;;;;0.40;0.30;;;0.10;99.90;-1.20;100301;;;;582773;246;24093;-81
2022/01/22 03:05:09;;;;;;;0.97;0.47;;;0.10;99.90;-1.20;100315;;;;582546;246;24081;-82
2022/01/22 03:07:39;;;;;;;1.57;0.70;;;0.00;99.90;-1.20;100313;;;;579426;245;24145;-81
2022/01/22 03:10:08;;;;;;;0.40;0.40;;;0.00;99.90;-1.20;100315;;;;582736;243;24143;-80
2022/01/22 03:12:51;;;;;;;0.83;0.60;;;-0.10;99.90;-1.30;100316;;;;573580;246;24130;-81
2022/01/22 03:18:04;;;;;;;0.60;0.60;;;-0.20;99.90;-1.50;100323;;;;574064;247;24079;-81
2022/01/22 03:20:40;;;;;;;4.90;0.73;;;-0.30;99.90;-1.60;100319;;;;573080;246;24122;-81
2022/01/22 03:23:06;;;;;;;1.30;0.50;;;-0.30;99.90;-1.50;100331;;;;542473;260;24159;-83
2022/01/22 03:28:08;;;;;;;0.40;0.40;;;-0.40;99.90;-1.50;100342;;;;566360;249;24112;-79
2022/01/22 03:30:38;;;;;;;1.20;1.00;;;-0.30;99.90;-1.60;100341;;;;565866;250;24078;-81
2022/01/22 03:33:04;;;;;;;0.23;0.23;;;-0.40;99.90;-1.60;100338;;;;565686;250;24106;-82
2022/01/22 03:35:35;;;;;;;1.90;0.80;;;-0.40;99.90;-1.60;100356;;;;559760;250;24093;-81
2022/01/22 03:37:59;;;;;;;3.07;0.60;;;-0.40;99.90;-1.50;100353;;;;559759;250;24081;-81
2022/01/22 03:40:30;;;;;;;6.50;0.77;;;-0.30;99.90;-1.50;100354;;;;566182;249;24120;-80
2022/01/22 03:42:55;;;;;;;0.87;0.43;;;-0.30;99.90;-1.40;100353;;;;566099;250;24141;-80
2022/01/22 03:45:26;;;;;;;0.60;0.60;;;-0.30;99.90;-1.40;100360;;;;566506;249;24149;-82
2022/01/22 03:47:55;;;;;;;2.20;0.77;;;-0.20;99.90;-1.30;100366;;;;562523;249;24107;-80
2022/01/22 03:50:20;;;;;;;4.03;1.17;;;-0.20;99.90;-1.30;100372;;;;559567;250;24092;-86
2022/01/22 03:52:48;;;;;;;0.60;0.60;;;-0.10;99.90;-1.30;100375;;;;562882;249;25158;-83
2022/01/22 03:56:04;;;;;;;0.70;0.70;;;0.00;99.90;-1.20;100374;;;;566290;250;24096;-82
2022/01/22 03:57:44;;;;;;;3.30;0.60;;;-0.10;99.90;-1.20;100376;;;;564962;250;24125;-82
2022/01/22 04:00:15;;;;;;;0.77;0.77;;;0.00;99.90;-1.20;100385;;;;545468;256;24191;-81
2022/01/22 04:03:12;;;;;;;2.13;1.97;;;0.00;99.90;-1.20;100382;;;;562888;249;24115;-82
2022/01/22 04:05:10;;;;;;;4.37;0.77;;;0.00;99.90;-1.10;100396;;;;572457;245;24213;-82
2022/01/22 04:10:26;;;;;;;1.03;0.90;;;0.10;99.90;-1.10;100410;;;;587011;243;24047;-81
2022/01/22 04:13:06;;;;;;;1.43;1.33;;;0.10;99.90;-1.10;100401;;;;577227;247;24202;-76
2022/01/22 04:15:31;;;;;;;1.53;0.50;;;0.10;99.90;-1.10;100408;;;;582802;246;24143;-79
2022/01/22 04:28:45;;;;;;;0.40;0.40;;;0.10;99.90;-1.00;100437;;;;576605;248;24074;-79
2022/01/22 04:31:12;;;;;;;4.13;1.10;;;0.10;99.90;-1.00;100428;;;;590754;243;25178;-79
2022/01/22 04:33:41;;;;;;;0.33;0.33;;;0.20;99.90;-1.00;100436;;;;590648;243;24050;-78
2022/01/22 04:36:11;;;;;;;2.53;1.40;;;0.20;99.90;-1.00;100438;;;;586484;243;24143;-78
2022/01/22 04:38:40;;;;;;;0.87;0.70;;;0.20;99.90;-1.00;100438;;;;586373;243;24085;-79
2022/01/22 04:41:05;;;;;;;1.23;0.83;;;0.20;99.90;-1.00;100448;;;;579758;243;24102;-79
2022/01/22 04:43:34;;;;;;;1.00;1.00;;;0.20;99.90;-0.90;100459;;;;590831;243;24083;-79
2022/01/22 04:46:11;;;;;;;0.70;0.70;;;0.20;99.90;-0.90;100461;;;;590762;243;24049;-77
2022/01/22 04:49:04;;;;;;;0.93;0.77;;;0.20;99.90;-0.90;100475;;;;578604;242;24116;-78
2022/01/22 04:56:32;;;;;;;1.00;0.67;;;0.20;99.90;-1.00;100475;;;;573971;246;24070;-79
2022/01/22 04:58:56;;;;;;;0.60;0.60;;;0.20;99.90;-1.00;100476;;;;573644;246;24097;-78
2022/01/22 05:01:24;;;;;;;0.67;0.67;;;0.20;99.90;-1.00;100480;;;;574037;246;24093;-79
2022/01/22 05:03:56;;;;;;;0.93;0.80;;;0.20;99.90;-1.00;100476;;;;574032;247;24089;-79
2022/01/22 05:06:21;;;;;;;0.70;0.70;;;0.20;99.90;-1.00;100462;;;;573609;247;24085;-78
2022/01/22 05:08:53;;;;;;;2.27;1.03;;;0.20;99.90;-1.00;100470;;;;574098;246;24105;-78
2022/01/22 05:11:18;;;;;;;0.70;0.70;;;0.20;99.90;-1.00;100471;;;;573494;246;24080;-81
2022/01/22 05:13:46;;;;;;;1.43;0.70;;;0.20;99.90;-1.00;100461;;;;574121;246;24180;-80
2022/01/22 05:16:16;;;;;;;2.57;0.60;;;0.20;99.90;-1.00;100460;;;;569353;247;24056;-81
2022/01/22 05:18:51;;;;;;;0.87;0.80;;;0.20;99.90;-1.10;100465;;;;572303;247;24115;-79
2022/01/22 05:21:13;;;;;;;0.73;0.60;;;0.10;99.90;-1.10;100452;;;;573551;247;24070;-80
2022/01/22 05:23:39;;;;;;;0.93;0.80;;;0.10;99.90;-1.20;100465;;;;582669;246;24073;-77
2022/01/22 05:26:11;;;;;;;1.90;0.70;;;0.00;99.90;-1.20;100471;;;;582569;246;24079;-78
2022/01/22 05:36:57;;;;;;;0.53;0.50;;;0.00;99.90;-1.20;100465;;;;584507;242;24104;-78
2022/01/22 05:38:57;;;;;;;0.50;0.50;;;0.00;99.90;-1.10;100486;;;;584284;243;24042;-81
2022/01/22 05:41:25;;;;;;;5.07;0.80;;;0.00;99.90;-1.10;100495;;;;584259;244;24094;-80
2022/01/22 05:43:53;;;;;;;0.77;0.77;;;0.00;99.90;-1.10;100479;;;;584322;244;24057;-80
2022/01/22 05:46:21;;;;;;;0.60;0.60;;;0.00;99.90;-1.20;100482;;;;583816;245;24106;-80
2022/01/22 05:48:50;;;;;;;0.60;0.50;;;0.00;99.90;-1.20;100492;;;;583902;244;24059;-80
2022/01/22 05:51:18;;;;;;;0.77;0.77;;;0.00;99.90;-1.20;100492;;;;584128;244;24059;-81
2022/01/22 05:54:14;;;;;;;1.70;0.50;;;0.00;99.90;-1.20;100492;;;;583722;246;24104;-78
2022/01/22 06:01:48;;;;;;;0.80;0.77;;;0.00;99.90;-1.20;100490;;;;583750;242;24124;-80
2022/01/22 06:04:16;;;;;;;0.67;0.67;;;0.00;99.90;-1.20;100491;;;;583859;244;24061;-81
2022/01/22 06:06:44;;;;;;;4.80;1.47;;;0.00;99.90;-1.20;100511;;;;583586;244;24081;-80
2022/01/22 06:09:12;;;;;;;0.63;0.63;;;0.00;99.90;-1.20;100520;;;;583678;243;24098;-80
2022/01/22 06:12:14;;;;;;;2.10;0.87;;;0.00;99.90;-1.20;100515;;;;576465;245;24039;-81
2022/01/22 06:14:27;;;;;;;0.93;0.83;;;0.00;99.90;-1.20;100531;;;;584360;245;24073;-81
2022/01/22 06:16:51;;;;;;;2.33;0.70;;;0.00;99.90;-1.20;100534;;;;585306;240;24120;-80
2022/01/22 06:19:19;;;;;;;5.10;1.07;;;0.00;99.90;-1.10;100546;;;;564582;252;24108;-80
2022/01/22 06:21:51;;;;;;;1.10;0.70;;;0.00;99.90;-1.10;100545;;;;571870;248;24103;-80
2022/01/22 06:24:16;;;;;;;2.53;1.43;;;0.10;99.90;-1.00;100544;;;;569979;249;24148;-80
2022/01/22 06:26:47;;;;;;;4.83;2.30;;;0.10;99.90;-1.00;100537;;;;577166;245;24153;-82
2022/01/22 06:29:12;;;;;;;6.80;5.23;;;0.10;99.90;-1.00;100537;;;;570045;245;24085;-81
2022/01/22 06:31:40;;;;;;;9.43;5.23;;;0.20;99.90;-1.00;100532;;;;589548;241;24059;-79
2022/01/22 06:34:09;;;;;;;0.80;0.80;;;0.20;99.90;-1.00;100549;;;;572135;246;24131;-78
2022/01/22 06:36:37;;;;;;;1.03;0.73;;;0.20;99.90;-1.00;100558;;;;575626;246;24088;-81
2022/01/22 06:39:16;;;;;;;2.17;0.73;;;0.20;99.90;-1.00;100538;;;;584558;243;24064;-81
2022/01/22 06:41:47;;;;;;;4.90;1.10;;;0.20;99.90;-1.00;100550;;;;573471;246;24081;-81
2022/01/22 06:44:23;;;;;;;3.23;1.23;;;0.20;99.90;-0.90;100551;;;;572801;247;24060;-82
2022/01/22 06:46:54;;;;;;;5.13;0.77;;;0.20;99.90;-0.90;100547;;;;573118;246;24132;-84
2022/01/22 06:49:22;;;;;;;2.87;1.43;;;0.20;99.90;-1.00;100564;;;;573135;244;26330;-83
2022/01/22 06:51:51;;;;;;;2.00;1.13;;;0.20;99.90;-1.00;100574;;;;584469;243;24049;-82
2022/01/22 06:54:20;;;;;;;8.50;2.13;;;0.10;99.90;-1.10;100566;;;;584208;246;24085;-81
2022/01/22 06:56:46;;;;;;;5.60;3.20;;;0.10;99.90;-1.10;100578;;;;584153;245;24057;-81
2022/01/22 06:59:14;;;;;;;1.73;1.53;;;0.10;99.90;-1.10;100569;;;;575118;247;24182;-83
2022/01/22 07:01:41;;;;;;;5.57;2.20;;;0.10;99.90;-1.10;100593;;;;583733;242;24116;-79
2022/01/22 07:04:12;;;;;;;1.87;1.23;;;0.10;99.90;-1.00;100573;;;;583992;243;24081;-82
2022/01/22 07:06:38;;;;;;;0.60;0.60;;;0.10;99.90;-1.00;100588;;;;583461;240;25132;-79
2022/01/22 07:09:06;;;;;;;1.70;1.60;;;0.20;99.90;-0.90;100598;;;;583743;241;24123;-79
2022/01/22 07:11:34;;;;;;;0.80;0.80;;;0.20;99.90;-0.90;100601;;;;583748;242;24067;-82
2022/01/22 07:14:03;;;;;;;0.73;0.73;;;0.30;99.90;-0.80;100604;;;;586076;242;24056;-81
2022/01/22 07:16:31;;;;;;;0.60;0.60;;;0.30;99.90;-0.80;100608;;;;572684;245;24081;-81
2022/01/22 07:19:01;;;;;;;1.70;1.47;;;0.30;99.90;-0.70;100614;;;;576937;242;24058;-80
2022/01/22 07:21:29;;;;;;;2.00;1.43;;;0.40;99.90;-0.70;100610;;;;582144;240;24048;-80
2022/01/22 07:26:32;;;;;;;2.07;1.13;;;0.50;99.90;-0.60;100623;;;;583998;243;24098;-80
2022/01/22 07:29:01;;;;;;;3.03;1.50;;;0.60;99.90;-0.60;100619;;;;583969;243;24069;-81
2022/01/22 07:31:29;;;;;;;3.57;1.30;;;0.50;99.90;-0.50;100628;;;;583715;240;24059;-81
2022/01/22 07:33:57;;;;;;;1.77;1.03;;;0.60;99.90;-0.50;100642;;;;583985;243;24062;-83
2022/01/22 07:36:25;;;;;;;2.97;1.33;;;0.70;99.90;-0.40;100649;;;;583995;243;24055;-82
2022/01/22 07:38:53;;;;;;;1.00;1.00;;;0.70;99.90;-0.40;100663;;;;584067;243;24123;-79
2022/01/22 07:41:21;;;;;;;8.07;2.10;;;0.70;99.90;-0.40;100656;;;;586900;243;24095;-79
2022/01/22 07:43:49;;;;;;;3.37;1.60;;;0.80;99.90;-0.40;100652;;;;588913;243;24057;-78
2022/01/22 07:46:17;;;;;;;4.87;0.90;;;0.80;99.90;-0.30;100647;;;;574399;248;24099;-77
2022/01/22 07:48:45;;;;;;;8.52;3.33;;;0.80;99.90;-0.30;100655;;;;569221;248;35195;-77
2022/01/22 07:51:14;;;;;;;3.73;2.37;;;0.90;99.90;-0.20;100656;;;;574083;247;24084;-78
2022/01/22 07:53:41;;;;;;;5.50;3.67;;;0.90;99.90;-0.20;100660;;;;573773;250;24126;-80
2022/01/22 07:56:09;;;;;;;2.93;1.97;;;0.90;99.90;-0.20;100663;;;;563105;249;24120;-81
2022/01/22 07:58:37;;;;;;;3.07;2.00;;;1.00;99.90;-0.20;100669;;;;573469;250;24118;-81
2022/01/22 08:01:05;;;;;;;6.87;3.00;;;1.00;99.90;-0.10;100665;;;;567817;246;35276;-80
2022/01/22 08:03:33;;;;;;;7.50;2.67;;;1.00;99.90;-0.10;100667;;;;573385;248;24178;-80
2022/01/22 08:06:01;;;;;;;7.93;3.17;;;1.20;99.90;0.10;100683;;;;568793;247;35337;-79
2022/01/22 08:08:29;;;;;;;4.40;2.67;;;1.20;99.90;0.20;100687;;;;570366;251;24127;-80
2022/01/22 08:10:57;;;;;;;2.77;1.70;;;1.30;99.90;0.30;100686;;;;573403;248;24154;-80
2022/01/22 08:13:25;;;;;;;7.03;1.87;;;1.40;99.90;0.30;100691;;;;573702;245;24073;-82
2022/01/22 08:15:53;;;;;;;4.77;2.37;;;1.50;99.90;0.30;100699;;;;590187;243;24047;-80
2022/01/22 08:18:21;;;;;;;3.83;2.00;;;1.50;99.90;0.40;100696;;;;570936;249;24113;-79
2022/01/22 08:20:49;;;;;;;5.57;2.60;;;1.50;99.90;0.50;100702;;;;582725;246;24177;-79
2022/01/22 08:23:20;;;;;;;2.43;1.93;;;1.80;99.90;0.60;100701;;;;574283;247;24126;-80
2022/01/22 08:25:46;;;;;;;1.80;1.50;;;1.80;99.90;0.60;100704;;;;581072;243;24093;-81
2022/01/22 08:31:04;;;;;;;3.93;2.23;;;1.70;99.90;0.70;100702;;;;586890;243;24093;-79
2022/01/22 08:36:13;;;;;;;3.70;2.77;;;2.00;99.90;0.90;100732;;;;582094;242;24099;-79
2022/01/22 08:38:41;;;;;;;1.97;1.40;;;2.10;99.90;1.00;100725;;;;586584;243;24183;-79
2022/01/22 08:41:13;;;;;;;3.13;1.27;;;2.20;99.90;1.00;100743;;;;586005;243;24110;-78
2022/01/22 08:43:37;;;;;;;2.67;1.73;;;2.20;99.90;1.10;100745;;;;589203;243;24081;-79
2022/01/22 08:46:05;;;;;;;3.80;1.60;;;2.20;99.90;1.10;100748;;;;586641;243;24059;-81
2022/01/22 08:48:33;;;;;;;3.73;2.00;;;2.30;99.90;1.00;100753;;;;587880;243;24129;-78
2022/01/22 08:51:01;;;;;;;4.97;2.07;;;2.20;99.90;1.00;100752;;;;586967;243;24094;-80
2022/01/22 08:53:32;;;;;;;4.13;2.03;;;2.20;99.90;1.00;100751;;;;582495;245;24108;-80
2022/01/22 08:55:58;;;;;;;4.17;2.13;;;2.20;99.90;0.90;100763;;;;577890;245;24117;-80
2022/01/22 08:58:25;;;;;;;2.43;1.73;;;2.10;99.90;1.00;100765;;;;585565;241;24045;-81
2022/01/22 09:00:53;;;;;;;1.70;1.37;;;2.10;99.90;1.00;100783;;;;584467;241;24057;-80
2022/01/22 09:03:22;;;;;;;3.50;1.10;;;2.20;99.90;1.00;100767;;;;575751;246;24075;-81
2022/01/22 09:05:53;;;;;;;0.50;0.50;;;2.20;99.90;1.00;100779;;;;584118;245;24140;-81
2022/01/22 09:08:17;;;;;;;2.07;1.30;;;2.20;99.90;1.10;100772;;;;575664;246;24147;-80
2022/01/22 09:10:45;;;;;;;4.90;1.70;;;2.20;99.90;1.10;100779;;;;584222;241;24073;-80
2022/01/22 09:13:13;;;;;;;1.40;1.20;;;2.20;99.90;1.10;100779;;;;572732;247;25112;-81
2022/01/22 09:15:41;;;;;;;1.37;1.30;;;2.30;99.90;1.30;100768;;;;584170;246;24088;-81
2022/01/22 09:18:09;;;;;;;7.37;1.60;;;2.40;99.90;1.50;100772;;;;584587;243;24129;-80
2022/01/22 09:23:07;;;;;;;2.27;1.53;;;2.70;99.90;1.60;100795;;;;585432;242;24156;-80
2022/01/22 09:25:35;;;;;;;4.43;1.90;;;2.80;99.90;1.50;100803;;;;586012;244;25122;-79
2022/01/22 09:28:07;;;;;;;3.97;1.40;;;2.70;99.90;1.40;100808;;;;578775;244;24094;-81
2022/01/22 09:30:31;;;;;;;3.90;1.47;;;2.60;99.90;1.20;100803;;;;578264;243;24090;-81
2022/01/22 09:33:03;;;;;;;3.90;1.93;;;2.50;99.90;1.10;100799;;;;588104;243;24082;-82
2022/01/22 09:35:28;;;;;;;3.47;1.73;;;2.40;99.90;0.90;100817;;;;572762;246;24129;-84
2022/01/22 09:37:57;;;;;;;4.23;1.60;;;2.20;99.90;0.60;100825;;;;578007;247;24070;-80
2022/01/22 09:40:26;;;;;;;2.63;1.37;;;2.00;99.90;0.30;100818;;;;580560;247;24108;-81
2022/01/22 09:42:57;;;;;;;1.53;1.13;;;1.70;99.90;0.10;100823;;;;571994;247;24112;-82
2022/01/22 09:45:22;;;;;;;1.93;0.97;;;1.50;99.90;0.00;100827;;;;565851;250;24138;-81
2022/01/22 09:47:51;;;;;;;1.87;1.47;;;1.20;99.90;0.00;100820;;;;573625;242;24104;-81
2022/01/22 09:50:19;;;;;;;7.20;2.00;;;1.20;99.90;0.10;100821;;;;574525;247;24135;-82
2022/01/22 09:52:46;;;;;;;1.57;1.47;;;1.30;99.90;0.20;100825;;;;579621;242;24085;-84
2022/01/22 09:55:14;;;;;;;7.03;1.97;;;1.40;99.90;0.20;100829;;;;582466;242;24061;-85
2022/01/22 09:57:44;;;;;;;1.30;1.03;;;1.40;99.90;0.30;100838;;;;586437;244;24099;-87
2022/01/22 10:00:10;;;;;;;0.70;0.70;;;1.40;99.90;0.20;100847;;;;574050;247;24165;-82
2022/01/22 10:02:42;;;;;;;2.20;1.30;;;1.40;99.90;0.10;100855;;;;578203;243;24123;-84
2022/01/22 10:05:29;;;;;;;2.60;1.30;;;1.40;99.90;0.00;100856;;;;568153;250;26417;-83
2022/01/22 10:08:36;;;;;;;3.60;1.67;;;1.30;99.90;0.00;100866;;;;593809;242;24178;-79
2022/01/22 10:10:58;;;;;;;3.10;1.70;;;1.20;99.90;-0.10;100855;;;;584838;245;24100;-80
2022/01/22 10:13:47;;;;;;;2.50;1.70;;;1.10;99.90;-0.10;100861;;;;572534;247;24100;-79
2022/01/22 10:16:24;;;;;;;5.33;2.33;;;1.10;99.90;0.00;100857;;;;581135;246;24141;-78
2022/01/22 10:19:13;;;;;;;7.93;3.00;;;1.20;99.90;0.10;100862;;;;581412;247;24105;-79
2022/01/22 10:21:41;;;;;;;5.53;3.50;;;1.30;99.90;0.10;100872;;;;571500;247;24126;-79
2022/01/22 10:24:41;;;;;;;13.17;4.50;;;1.30;99.90;0.10;100876;;;;575515;247;24133;-79
2022/01/22 10:27:45;;;;;;;3.57;1.63;;;1.30;99.90;0.00;100883;;;;572598;246;24134;-78
2022/01/22 10:29:56;;;;;;;3.97;2.27;;;1.30;99.90;-0.10;100893;;;;557042;251;24142;-78
2022/01/22 10:32:46;;;;;;;6.10;2.97;;;1.20;99.90;-0.20;100898;;;;571717;247;35360;-78
2022/01/22 10:35:08;;;;;;;1.20;1.10;;;1.10;99.90;-0.30;100893;;;;580925;246;25139;-78
2022/01/22 10:37:36;;;;;;;1.73;1.30;;;0.90;99.90;-0.30;100886;;;;573477;249;24294;-80
2022/01/22 10:40:29;;;;;;;1.77;1.17;;;0.90;99.90;-0.30;100890;;;;572460;247;24180;-79
2022/01/22 10:43:32;;;;;;;1.53;1.03;;;0.90;99.90;-0.30;100885;;;;567532;251;24138;-77
2022/01/22 10:46:13;;;;;;;2.37;1.10;;;0.90;99.90;-0.30;100897;;;;571375;246;24137;-78
2022/01/22 10:48:45;;;;;;;1.67;1.57;;;0.90;99.90;-0.20;100886;;;;580011;243;24124;-78
2022/01/22 10:51:12;;;;;;;3.73;1.60;;;1.00;99.90;-0.10;100890;;;;561965;253;24181;-83
2022/01/22 10:53:43;;;;;;;7.13;2.33;;;1.10;99.90;-0.20;100887;;;;561992;252;24125;-84
2022/01/22 10:56:11;;;;;;;2.33;1.70;;;1.00;99.90;-0.30;100895;;;;570320;252;24111;-85
2022/01/22 10:58:54;;;;;;;2.77;1.90;;;1.00;99.90;-0.30;100888;;;;570273;252;24096;-85
2022/01/22 11:01:23;;;;;;;4.83;2.13;;;0.90;99.90;-0.40;100898;;;;572326;247;24094;-82
2022/01/22 11:04:13;;;;;;;1.70;1.60;;;0.90;99.90;-0.30;100900;;;;563772;252;24106;-83
2022/01/22 11:06:41;;;;;;;4.13;2.03;;;0.80;99.90;-0.30;100898;;;;560903;252;25168;-84
2022/01/22 11:09:09;;;;;;;9.13;3.20;;;0.90;99.90;-0.20;100912;;;;565212;248;35254;-80
2022/01/22 11:11:39;;;;;;;9.50;3.65;;;1.00;99.90;-0.10;100903;;;;572758;248;35479;-82
2022/01/22 11:14:05;;;;;;;3.57;2.60;;;1.00;99.90;-0.10;100910;;;;581209;245;24079;-82
2022/01/22 11:16:33;;;;;;;5.30;2.53;;;1.10;99.90;0.00;100909;;;;575255;248;24174;-81
2022/01/22 11:19:05;;;;;;;4.53;2.77;;;1.20;99.90;0.10;100910;;;;572045;251;24100;-85
2022/01/22 11:21:33;;;;;;;4.77;2.07;;;1.30;99.90;0.10;100911;;;;564522;250;24102;-85
2022/01/22 11:24:01;;;;;;;3.60;1.93;;;1.40;99.90;0.20;100922;;;;563891;249;24164;-84
2022/01/22 11:26:25;;;;;;;4.40;2.00;;;1.40;99.90;0.20;100923;;;;575496;247;24110;-83
2022/01/22 11:28:57;;;;;;;3.57;2.30;;;1.50;99.90;0.20;100925;;;;558254;256;24180;-82
2022/01/22 11:31:21;;;;;;;7.37;4.00;;;1.50;99.90;0.30;100920;;;;565122;251;24130;-81
2022/01/22 11:33:53;;;;;;;5.87;3.73;;;1.70;99.90;0.40;100915;;;;574733;249;24150;-81
2022/01/22 11:36:31;;;;;;;9.23;3.63;;;1.70;99.90;0.50;100918;;;;551770;256;24146;-83
2022/01/22 11:38:57;;;;;;;4.10;1.87;;;1.80;99.90;0.60;100929;;;;560709;256;24163;-83
2022/01/22 11:41:25;;;;;;;2.47;1.70;;;1.90;99.90;0.70;100936;;;;567926;248;24148;-79
2022/01/22 11:44:10;;;;;;;2.87;1.90;;;2.00;99.90;0.80;100951;;;;570849;251;24095;-82
2022/01/22 11:46:51;;;;;;;0.80;0.80;;;2.10;99.90;0.70;100941;;;;547386;257;24143;-81
2022/01/22 11:49:22;;;;;;;7.10;2.30;;;1.90;99.90;0.60;100942;;;;563278;249;24115;-80
2022/01/22 11:51:50;;;;;;;2.47;2.20;;;1.90;99.90;0.60;100925;;;;571577;246;24095;-82
2022/01/22 11:54:17;;;;;;;5.40;2.27;;;2.00;99.90;0.50;100928;;;;571848;245;24120;-83
2022/01/22 11:56:54;;;;;;;12.60;6.33;;;1.80;99.90;0.60;100939;;;;551215;256;24157;-82
2022/01/22 11:59:24;;;;;;;14.03;5.17;;;1.90;99.90;0.60;100938;;;;558921;253;24103;-81
2022/01/22 12:01:54;;;;;;;11.57;5.30;;;1.90;99.90;0.60;100939;;;;562555;248;35316;-81
2022/01/22 12:04:21;;;;;;;10.90;4.37;;;1.90;99.90;0.60;100944;;;;563872;251;24092;-82
2022/01/22 12:07:01;;;;;;;5.80;3.43;;;1.90;99.90;0.60;100944;;;;561918;251;24095;-81
2022/01/22 12:09:50;;;;;;;7.30;2.30;;;1.90;99.90;0.60;100949;;;;559745;256;24110;-79
2022/01/22 12:15:20;;;;;;;12.47;5.13;;;2.00;99.90;0.70;100947;;;;557424;253;24113;-81
2022/01/22 12:17:51;;;;;;;11.37;4.87;;;2.00;99.90;0.80;100944;;;;571693;245;24088;-82
2022/01/22 12:23:06;;;;;;;7.63;2.63;;;2.20;99.90;0.90;100964;;;;550995;255;24137;-83
2022/01/22 12:25:34;;;;;;;2.33;1.97;;;2.20;99.90;0.90;100959;;;;562986;248;24120;-82
2022/01/22 12:28:06;;;;;;;8.90;4.17;;;2.20;99.90;1.00;100972;;;;559756;253;24143;-83
2022/01/22 12:30:40;;;;;;;9.23;3.70;;;2.30;99.90;1.00;100961;;;;566211;250;25135;-82
2022/01/22 12:33:11;;;;;;;8.20;4.40;;;2.30;99.90;1.00;100967;;;;574794;249;24110;-82
2022/01/22 12:35:41;;;;;;;11.70;5.83;;;2.30;99.90;0.90;100963;;;;551193;256;24144;-82
2022/01/22 12:38:28;;;;;;;13.10;6.57;;;2.20;99.90;0.90;100971;;;;567267;252;24089;-81
2022/01/22 12:40:51;;;;;;;8.73;4.77;;;2.20;99.90;0.80;100971;;;;563757;251;24091;-82
2022/01/22 12:43:20;;;;;;;4.10;2.20;;;2.10;99.90;0.80;100976;;;;551664;256;24184;-81
2022/01/22 12:45:44;;;;;;;8.93;4.20;;;2.00;99.90;0.70;100975;;;;565415;247;35156;-80
2022/01/22 12:48:14;;;;;;;5.70;2.70;;;2.00;99.90;0.60;100975;;;;582549;246;24082;-83
2022/01/22 12:50:40;;;;;;;4.03;1.83;;;2.00;99.90;0.70;100972;;;;573924;247;24066;-81
2022/01/22 12:53:11;;;;;;;5.40;2.83;;;1.90;99.90;0.60;100974;;;;584477;245;24053;-82
2022/01/22 12:58:23;;;;;;;5.07;2.57;;;1.90;99.90;0.60;100981;;;;565337;246;24056;-79